Main page
METAR-TAF:

METAR-TAF

Airports :

City of Derry Airport

Derry, Northern Ireland

latitude: 55-03N, longitude: 007-09W, elevation: 9 m

Current weather observation

The report was made 10 hours and 50 minutes ago, at 16:50 UTC
Wind 8 kt from the North/Northwest, varying between West/Northwest and North
Temperature 12°C
Humidity 67%
Pressure 1016 hPa
Visibility 10 km or more
Few clouds at a height of 3500 ft

METAR: EGAE 221650Z 33008KT 300V360 9999 FEW035 12/06 Q1016

Time: 04:40 (03:40 UTC)

Forecast

The report was made 13 hours and 41 minutes ago, at 13:59 UTC
Forecast valid from 22 at 15 UTC to 22 at 17 UTC
Wind 7 kt from the West/Northwest
Visibility 10 km or more
Scattered clouds at a height of 3500 ft

TAF: EGAE 221359Z 2215/2217 29007KT 9999 SCT035

Weather observations and forecasts of more than 4000 airports (METAR and TAF reports).

The available stations are represented by yellow and red dots on the map.

Hover mouse over dot to see the name of the station.

Then click to see weather observations and forecasts.

To change the map : click on the green buttons with a black cross to zoom in, on the green button with a dash to zoom out, or on the green arrows for adjacent maps.


METAR-TAF: